createdAt,value
2023-03-07T00:04:39.840Z,99111.41
2023-03-07T00:09:42.873Z,99107.06
2023-03-07T00:14:45.885Z,99086.50
2023-03-07T00:19:47.647Z,99077.94
2023-03-07T00:24:50.773Z,99066.78
2023-03-07T00:29:52.537Z,99053.97
2023-03-07T00:34:54.290Z,99043.59
2023-03-07T00:39:57.455Z,99030.66
2023-03-07T00:44:59.198Z,99017.81
2023-03-07T00:50:00.923Z,99004.00
2023-03-07T00:55:04.568Z,98991.09
2023-03-07T01:00:08.983Z,98977.34
2023-03-07T01:05:10.724Z,98965.31
2023-03-07T01:10:13.893Z,98960.16
2023-03-07T01:15:16.094Z,98949.00
2023-03-07T01:20:18.029Z,98938.66
2023-03-07T01:25:21.080Z,98918.84
2023-03-07T01:30:22.972Z,98911.88
2023-03-07T01:35:24.938Z,98893.84
2023-03-07T01:40:30.717Z,98884.38
2023-03-07T01:46:23.320Z,98870.56
2023-03-07T01:51:28.558Z,98866.28
2023-03-07T01:56:32.674Z,98849.06
2023-03-07T02:01:34.574Z,98831.84
2023-03-07T02:06:37.521Z,98832.69
2023-03-07T02:11:42.015Z,98815.50
2023-03-07T02:16:43.800Z,98806.06
2023-03-07T02:21:48.523Z,98796.59
2023-03-07T02:26:51.586Z,98795.78
2023-03-07T02:31:53.402Z,98783.78
2023-03-07T02:36:58.354Z,98785.50
2023-03-07T02:42:04.423Z,98767.44
2023-03-07T02:47:16.666Z,98757.97
2023-03-07T02:52:19.182Z,98743.34
2023-03-07T02:57:22.345Z,98745.09
2023-03-07T03:02:24.088Z,98740.78
2023-03-07T03:07:26.673Z,98738.22
2023-03-07T03:12:29.737Z,98737.38
2023-03-07T03:17:31.834Z,98737.38
2023-03-07T03:22:33.597Z,98738.25
2023-03-07T03:27:37.745Z,98732.22
2023-03-07T03:32:40.401Z,98729.63
2023-03-07T03:37:43.994Z,98722.75
2023-03-07T03:42:47.311Z,98727.91
2023-03-07T03:47:51.832Z,98731.41
2023-03-07T03:52:53.883Z,98727.94
2023-03-07T03:57:57.121Z,98712.50
2023-03-07T04:02:59.091Z,98710.78
2023-03-07T04:08:00.990Z,98699.59
2023-03-07T04:13:04.285Z,98700.47
2023-03-07T04:18:06.041Z,98699.63
2023-03-07T04:23:07.834Z,98680.72
2023-03-07T04:28:11.097Z,98703.06
2023-03-07T04:33:12.974Z,98698.78
2023-03-07T04:38:15.361Z,98691.91
2023-03-07T04:43:18.594Z,98691.91
2023-03-07T04:48:20.310Z,98677.28
2023-03-07T04:53:22.416Z,98669.56
2023-03-07T04:58:25.664Z,98669.56
2023-03-07T05:03:27.536Z,98678.19
2023-03-07T05:08:29.601Z,98664.44
2023-03-07T05:13:33.211Z,98666.13
2023-03-07T05:18:36.017Z,98665.28
2023-03-07T05:23:37.982Z,98659.28
2023-03-07T05:28:41.298Z,98675.59
2023-03-07T05:33:43.083Z,98679.03
2023-03-07T05:38:45.497Z,98690.25
2023-03-07T05:43:48.631Z,98689.38
2023-03-07T05:48:50.445Z,98691.03
2023-03-07T05:53:52.232Z,98696.16
2023-03-07T05:58:55.318Z,98687.56
2023-03-07T06:03:57.302Z,98672.97
2023-03-07T06:08:59.115Z,98670.38
2023-03-07T06:14:02.200Z,98666.09
2023-03-07T06:19:04.244Z,98665.19
2023-03-07T06:24:07.295Z,98654.88
2023-03-07T06:29:10.393Z,98660.91
2023-03-07T06:34:12.595Z,98651.44
2023-03-07T06:39:16.925Z,98655.72
2023-03-07T06:44:20.033Z,98654.88
2023-03-07T06:49:21.922Z,98674.66
2023-03-07T06:54:24.476Z,98687.56
2023-03-07T06:59:27.934Z,98680.72
2023-03-07T07:04:29.932Z,98677.28
2023-03-07T07:09:32.007Z,98679.00
2023-03-07T07:14:36.627Z,98672.16
2023-03-07T07:19:38.640Z,98677.34
2023-03-07T07:24:40.674Z,98678.16
2023-03-07T07:29:44.901Z,98685.94
2023-03-07T07:34:46.629Z,98689.38
2023-03-07T07:39:48.927Z,98689.38
2023-03-07T07:44:52.104Z,98694.53
2023-03-07T07:49:55.149Z,98691.09
2023-03-07T07:54:57.445Z,98691.09
2023-03-07T08:00:01.033Z,98698.00
2023-03-07T08:05:06.408Z,98692.81
2023-03-07T08:10:09.850Z,98686.75
2023-03-07T08:15:13.589Z,98686.75
2023-03-07T08:20:15.292Z,98685.88
2023-03-07T08:25:18.059Z,98685.88
2023-03-07T08:30:21.341Z,98691.88
2023-03-07T08:35:23.082Z,98691.91
2023-03-07T08:40:26.043Z,98692.75
2023-03-07T08:45:29.135Z,98691.03
2023-03-07T08:50:30.802Z,98697.06
2023-03-07T08:55:35.041Z,98704.81
2023-03-07T09:00:38.067Z,98702.19
2023-03-07T09:05:39.778Z,98702.19
2023-03-07T09:10:41.425Z,98715.09
2023-03-07T09:15:44.404Z,98714.25
2023-03-07T09:20:46.053Z,98715.13
2023-03-07T09:25:47.721Z,98716.03
2023-03-07T09:30:50.912Z,98716.00
2023-03-07T09:35:52.548Z,98711.75
2023-03-07T09:40:54.166Z,98719.53
2023-03-07T09:46:00.126Z,98722.97
2023-03-07T09:51:11.490Z,98725.50
2023-03-07T09:56:15.686Z,98730.69
2023-03-07T10:01:21.136Z,98734.13
2023-03-07T10:06:25.406Z,98741.03
2023-03-07T10:11:41.425Z,98731.50
2023-03-07T10:16:47.885Z,98731.53
2023-03-07T10:21:52.522Z,98738.41
2023-03-07T10:26:57.785Z,98733.25
2023-03-07T10:32:13.832Z,98734.97
2023-03-07T10:37:17.738Z,98737.53
2023-03-07T10:42:20.287Z,98740.97
2023-03-07T10:47:24.142Z,98750.44
2023-03-07T10:52:32.162Z,98745.25
2023-03-07T10:57:33.861Z,98746.97
2023-03-07T11:02:37.621Z,98757.28
2023-03-07T11:07:39.517Z,98752.97
2023-03-07T11:12:44.485Z,98749.53
2023-03-07T11:17:48.077Z,98749.53
2023-03-07T11:22:49.850Z,98747.81
2023-03-07T11:27:52.941Z,98748.69
2023-03-07T11:33:03.257Z,98744.41
2023-03-07T11:38:07.135Z,98740.94
2023-03-07T11:43:15.186Z,98746.97
2023-03-07T11:48:42.706Z,98752.16
2023-03-07T11:53:53.318Z,98749.56
2023-03-07T11:59:15.617Z,98740.13
2023-03-07T12:04:31.381Z,98740.13
2023-03-07T12:09:39.820Z,98736.69
2023-03-07T12:14:45.824Z,98740.16
2023-03-07T12:20:11.914Z,98743.63
2023-03-07T12:25:21.069Z,98742.75
2023-03-07T12:30:24.883Z,98739.28
2023-03-07T12:35:30.836Z,98738.41
2023-03-07T12:40:34.643Z,98741.88
2023-03-07T12:45:41.443Z,98745.31
2023-03-07T12:50:47.542Z,98753.94
2023-03-07T12:55:50.405Z,98738.44
2023-03-07T13:00:54.392Z,98747.91
2023-03-07T13:05:57.480Z,98736.69
2023-03-07T13:10:59.119Z,98743.56
2023-03-07T13:16:04.669Z,98743.56
2023-03-07T13:21:09.458Z,98741.78
2023-03-07T13:26:12.207Z,98752.13
2023-03-07T13:31:26.783Z,98744.41
2023-03-07T13:36:34.443Z,98744.44
2023-03-07T13:41:46.905Z,98743.56
2023-03-07T13:46:48.826Z,98751.34
2023-03-07T13:52:24.191Z,98738.47
2023-03-07T13:57:31.805Z,98768.56
2023-03-07T14:02:34.913Z,98772.88
2023-03-07T14:07:36.998Z,98766.00
2023-03-07T14:12:44.692Z,98776.34
2023-03-07T14:17:53.676Z,98785.78
2023-03-07T14:23:02.269Z,98777.13
2023-03-07T14:28:19.429Z,98762.50
2023-03-07T14:33:21.126Z,98770.28
2023-03-07T14:38:24.416Z,98782.31
2023-03-07T14:43:36.439Z,98793.50
2023-03-07T14:48:44.564Z,98779.72
2023-03-07T14:53:46.795Z,98790.94
2023-03-07T14:58:51.093Z,98797.81
2023-03-07T15:03:53.756Z,98794.34
2023-03-07T15:08:57.631Z,98794.34
2023-03-07T15:14:01.823Z,98808.09
2023-03-07T15:19:05.247Z,98808.97
2023-03-07T15:24:13.013Z,98813.28
2023-03-07T15:29:16.204Z,98814.09
2023-03-07T15:34:22.522Z,98808.91
2023-03-07T15:39:31.317Z,98818.34
2023-03-07T15:44:34.747Z,98814.91
2023-03-07T15:49:43.154Z,98824.34
2023-03-07T15:54:44.847Z,98822.59
2023-03-07T15:59:51.836Z,98827.78
2023-03-07T16:04:53.731Z,98826.91
2023-03-07T16:09:55.408Z,98830.34
2023-03-07T16:14:58.436Z,98828.59
2023-03-07T16:20:00.211Z,98834.59
2023-03-07T16:25:02.384Z,98831.19
2023-03-07T16:30:12.322Z,98841.47
2023-03-07T16:35:15.162Z,98834.63
2023-03-07T16:40:17.446Z,98837.13
2023-03-07T16:45:21.845Z,98839.69
2023-03-07T16:50:25.491Z,98849.09
2023-03-07T16:55:27.246Z,98861.94
2023-03-07T17:00:31.088Z,98863.63
2023-03-07T17:05:32.767Z,98863.63
2023-03-07T17:10:34.622Z,98873.91
2023-03-07T17:15:38.150Z,98877.34
2023-03-07T17:20:40.148Z,98879.06
2023-03-07T17:25:41.785Z,98884.97
2023-03-07T17:30:45.515Z,98903.00
2023-03-07T17:35:47.321Z,98895.22
2023-03-07T17:40:53.731Z,98896.94
2023-03-07T17:45:56.723Z,98911.50
2023-03-07T17:50:58.411Z,98913.16
2023-03-07T17:56:06.582Z,98919.16
2023-03-07T18:01:11.175Z,98915.53
2023-03-07T18:06:13.287Z,98924.88
2023-03-07T18:11:15.060Z,98922.16
2023-03-07T18:16:18.097Z,98924.81
2023-03-07T18:21:23.455Z,98938.47
2023-03-07T18:26:25.198Z,98940.16
2023-03-07T18:31:28.668Z,98938.44
2023-03-07T18:36:30.521Z,98944.41
2023-03-07T18:41:32.273Z,98946.88
2023-03-07T18:46:37.114Z,98953.78
2023-03-07T18:51:39.404Z,98960.66
2023-03-07T18:56:42.535Z,98966.63
2023-03-07T19:01:45.760Z,98963.28
2023-03-07T19:06:48.502Z,98967.56
2023-03-07T19:11:50.292Z,98974.47
2023-03-07T19:16:53.525Z,98983.09
2023-03-07T19:21:55.340Z,98983.16
2023-03-07T19:26:57.658Z,98990.88
2023-03-07T19:32:00.734Z,99002.81
2023-03-07T19:37:02.556Z,99001.97
2023-03-07T19:42:04.630Z,99012.25
2023-03-07T19:47:07.679Z,99022.56
2023-03-07T19:52:09.440Z,99026.00
2023-03-07T19:57:14.760Z,99027.78
2023-03-07T20:02:17.869Z,99033.88
2023-03-07T20:07:19.583Z,99033.94
2023-03-07T20:12:21.347Z,99037.38
2023-03-07T20:17:24.503Z,99040.66
2023-03-07T20:22:28.217Z,99043.22
2023-03-07T20:27:29.948Z,99048.28
2023-03-07T20:32:33.044Z,99048.19
2023-03-07T20:37:35.938Z,99064.44
2023-03-07T20:42:37.624Z,99069.56
2023-03-07T20:47:40.753Z,99065.31
2023-03-07T20:52:42.491Z,99077.31
2023-03-07T20:57:44.249Z,99079.13
2023-03-07T21:02:48.277Z,99079.09
2023-03-07T21:07:50.051Z,99079.19
2023-03-07T21:12:51.753Z,99086.41
2023-03-07T21:17:54.857Z,99094.91
2023-03-07T21:22:56.629Z,99103.41
2023-03-07T21:27:58.664Z,99103.38
2023-03-07T21:33:01.776Z,99108.38
2023-03-07T21:38:03.628Z,99110.78
2023-03-07T21:43:05.336Z,99111.53
2023-03-07T21:48:08.677Z,99124.31
2023-03-07T21:53:10.559Z,99124.22
2023-03-07T21:58:12.261Z,99131.91
2023-03-07T22:03:15.352Z,99126.53
2023-03-07T22:08:17.541Z,99126.47
2023-03-07T22:13:19.263Z,99140.94
2023-03-07T22:18:22.397Z,99142.66
2023-03-07T22:23:26.453Z,99148.63
2023-03-07T22:28:28.254Z,99150.47
2023-03-07T22:33:31.287Z,99149.75
2023-03-07T22:38:33.303Z,99150.78
2023-03-07T22:43:35.240Z,99155.94
2023-03-07T22:48:38.308Z,99163.63
2023-03-07T22:53:40.121Z,99158.53
2023-03-07T22:58:41.980Z,99164.47
2023-03-07T23:03:45.107Z,99171.47
2023-03-07T23:08:47.067Z,99170.72
2023-03-07T23:13:48.815Z,99167.31
2023-03-07T23:18:52.068Z,99173.25
2023-03-07T23:23:54.219Z,99183.50
2023-03-07T23:28:56.013Z,99192.03
2023-03-07T23:34:01.222Z,99187.09
2023-03-07T23:39:03.347Z,99196.56
2023-03-07T23:44:05.145Z,99190.56
2023-03-07T23:49:08.214Z,99195.78
2023-03-07T23:54:09.920Z,99197.44
2023-03-07T23:59:11.615Z,99199.97
